Time;durP1;ratioP1;P1;durP2;ratioP2;P2;SDS_P1;SDS_P2;PMS_P1;PMS_P2;Temp;Humidity;BMP_temperature;BMP_pressure;BME280_temperature;BME280_humidity;BME280_pressure;Samples;Min_cycle;Max_cycle;Signal;HPM_P1;HPM_P2
2021/12/17 00:00:06;;;;;;;5.30;4.03;;;;;;;;;;5115965;28;20028;-61
2021/12/17 00:05:18;;;;;;;5.07;4.00;;;;;;;;;;4992846;28;20045;-67
2021/12/17 00:07:45;;;;;;;7.65;4.45;;;;;;;;;;4992623;28;20022;-61
2021/12/17 00:10:12;;;;;;;8.07;3.90;;;;;;;;;;4992613;28;20049;-61
2021/12/17 00:12:38;;;;;;;9.27;3.95;;;;;;;;;;4992272;28;20070;-63
2021/12/17 00:15:05;;;;;;;7.90;3.90;;;;;;;;;;4992651;28;20474;-67
2021/12/17 00:17:32;;;;;;;10.25;4.18;;;;;;;;;;4992417;28;20029;-62
2021/12/17 00:49:58;;;;;;;7.88;4.97;;;;;;;;;;5012086;28;20037;-71
2021/12/17 00:52:28;;;;;;;6.32;4.78;;;;;;;;;;5096843;28;20078;-67
2021/12/17 00:54:53;;;;;;;9.13;5.18;;;;;;;;;;5115061;28;20051;-68
2021/12/17 00:57:27;;;;;;;8.27;5.10;;;;;;;;;;5115083;28;20468;-64
2021/12/17 00:59:54;;;;;;;9.65;5.60;;;;;;;;;;5114980;28;20027;-67
2021/12/17 01:02:25;;;;;;;6.68;4.82;;;;;;;;;;5115049;28;20076;-73
2021/12/17 01:04:54;;;;;;;8.25;5.57;;;;;;;;;;5115167;28;20360;-73
2021/12/17 01:07:22;;;;;;;7.43;5.15;;;;;;;;;;5115203;28;20102;-72
2021/12/17 01:09:48;;;;;;;8.68;5.50;;;;;;;;;;5114872;28;20045;-72
2021/12/17 01:12:14;;;;;;;8.18;5.57;;;;;;;;;;5096439;28;20069;-72
2021/12/17 01:14:40;;;;;;;10.48;6.55;;;;;;;;;;5114706;28;20027;-68
2021/12/17 01:17:07;;;;;;;9.85;6.05;;;;;;;;;;5114590;28;20485;-64
2021/12/17 01:24:48;;;;;;;10.60;6.55;;;;;;;;;;5114487;28;20024;-67
2021/12/17 01:35:30;;;;;;;38.50;6.13;;;;;;;;;;5036145;28;20095;-62
2021/12/17 01:43:29;;;;;;;17.05;5.88;;;;;;;;;;5011214;28;20041;-61
2021/12/17 01:45:56;;;;;;;15.80;6.30;;;;;;;;;;5010871;28;20467;-61
2021/12/17 01:48:28;;;;;;;16.83;6.10;;;;;;;;;;5010634;28;20377;-61
2021/12/17 01:56:53;;;;;;;16.98;5.57;;;;;;;;;;5114027;28;20031;-71
2021/12/17 01:59:27;;;;;;;20.20;6.30;;;;;;;;;;5114059;28;20089;-61
2021/12/17 02:01:59;;;;;;;11.15;6.03;;;;;;;;;;5113814;28;20425;-60
2021/12/17 02:04:25;;;;;;;11.68;5.80;;;;;;;;;;5095463;28;20367;-60
2021/12/17 02:06:51;;;;;;;12.02;5.95;;;;;;;;;;5113580;28;20032;-62
2021/12/17 02:20:22;;;;;;;9.77;5.70;;;;;;;;;;5094100;28;20092;-67
2021/12/17 02:28:46;;;;;;;12.20;5.90;;;;;;;;;;5057325;28;20115;-61
2021/12/17 02:31:32;;;;;;;;;;;;;;;;;;5113862;28;20034;-61
2021/12/17 02:37:01;;;;;;;10.77;5.32;;;;;;;;;;5033298;28;20091;-68
2021/12/17 02:40:02;;;;;;;16.80;5.75;;;;;;;;;;5077857;28;20121;-62
2021/12/17 02:45:32;;;;;;;9.60;5.40;;;;;;;;;;5010109;28;20106;-61
2021/12/17 02:45:35;;;;;;;13.07;5.80;;;;;;;;;;5011838;28;20037;-62
2021/12/17 02:48:05;;;;;;;11.57;5.90;;;;;;;;;;5013525;28;20403;-64
2021/12/17 02:50:31;;;;;;;9.15;5.82;;;;;;;;;;5026628;28;20022;-61
2021/12/17 02:53:01;;;;;;;11.75;5.65;;;;;;;;;;5036811;28;20073;-66
2021/12/17 02:55:28;;;;;;;12.45;5.60;;;;;;;;;;5033166;28;20298;-62
2021/12/17 02:57:55;;;;;;;12.10;5.50;;;;;;;;;;5101792;28;20029;-63
2021/12/17 03:00:21;;;;;;;11.80;5.05;;;;;;;;;;5033002;28;20034;-63
2021/12/17 03:02:48;;;;;;;11.07;5.47;;;;;;;;;;5033313;28;20025;-61
2021/12/17 03:05:14;;;;;;;9.98;5.32;;;;;;;;;;5102181;28;20390;-61
2021/12/17 03:07:43;;;;;;;7.70;5.15;;;;;;;;;;5033120;28;20055;-63
2021/12/17 03:10:11;;;;;;;14.63;5.57;;;;;;;;;;5101631;28;20022;-61
2021/12/17 03:12:57;;;;;;;8.05;5.03;;;;;;;;;;5032699;28;20413;-67
2021/12/17 03:15:33;;;;;;;6.70;5.18;;;;;;;;;;5032911;28;20124;-61
2021/12/17 03:23:42;;;;;;;11.90;5.40;;;;;;;;;;4993689;28;20037;-61
2021/12/17 03:26:10;;;;;;;10.02;5.20;;;;;;;;;;5007179;28;20082;-70
2021/12/17 03:28:36;;;;;;;8.68;4.47;;;;;;;;;;5013231;28;20037;-61
2021/12/17 03:31:03;;;;;;;9.45;5.25;;;;;;;;;;5012841;28;20058;-61
2021/12/17 03:33:29;;;;;;;11.77;5.15;;;;;;;;;;5012523;28;20033;-62
2021/12/17 03:35:57;;;;;;;8.32;5.00;;;;;;;;;;5012706;28;20022;-62
2021/12/17 03:38:23;;;;;;;10.27;5.28;;;;;;;;;;5012968;28;20040;-67
2021/12/17 03:40:57;;;;;;;8.75;5.13;;;;;;;;;;5012747;28;20032;-61
2021/12/17 03:43:30;;;;;;;6.68;5.10;;;;;;;;;;5012108;28;20409;-61
2021/12/17 03:45:56;;;;;;;7.35;5.25;;;;;;;;;;5012645;28;20025;-62
2021/12/17 03:48:21;;;;;;;6.63;5.03;;;;;;;;;;5012556;28;20078;-62
2021/12/17 03:50:47;;;;;;;7.88;4.80;;;;;;;;;;5037615;28;20083;-62
2021/12/17 03:53:13;;;;;;;8.57;5.03;;;;;;;;;;5115837;28;20059;-63
2021/12/17 03:55:39;;;;;;;11.63;4.57;;;;;;;;;;5097781;28;20020;-62
2021/12/17 03:58:05;;;;;;;11.95;4.60;;;;;;;;;;5115155;28;20586;-61
2021/12/17 04:00:31;;;;;;;11.10;5.00;;;;;;;;;;5116147;28;20031;-63
2021/12/17 04:02:57;;;;;;;19.88;5.53;;;;;;;;;;5115974;28;20019;-66
2021/12/17 04:05:24;;;;;;;7.22;4.70;;;;;;;;;;5115864;28;20099;-59
2021/12/17 04:07:50;;;;;;;7.28;4.32;;;;;;;;;;5115840;28;20031;-60
2021/12/17 04:10:18;;;;;;;8.55;4.57;;;;;;;;;;5115768;28;20032;-60
2021/12/17 04:12:59;;;;;;;12.50;4.28;;;;;;;;;;5115580;28;20043;-61
2021/12/17 04:15:34;;;;;;;6.38;4.22;;;;;;;;;;5095003;28;20050;-61
2021/12/17 04:18:01;;;;;;;7.32;4.22;;;;;;;;;;5080244;28;20037;-62
2021/12/17 04:20:27;;;;;;;6.10;4.30;;;;;;;;;;5097070;28;20028;-61
2021/12/17 04:22:53;;;;;;;7.97;4.55;;;;;;;;;;5115485;28;20039;-61
2021/12/17 04:25:19;;;;;;;4.80;3.85;;;;;;;;;;5097213;28;20028;-60
2021/12/17 04:27:45;;;;;;;4.97;4.00;;;;;;;;;;5115628;28;20016;-61
2021/12/17 04:30:11;;;;;;;6.05;4.45;;;;;;;;;;5115526;28;20020;-61
2021/12/17 04:32:37;;;;;;;7.50;3.90;;;;;;;;;;5097116;28;20024;-62
2021/12/17 04:35:03;;;;;;;5.72;4.20;;;;;;;;;;5115183;28;20085;-61
2021/12/17 04:37:29;;;;;;;7.90;4.38;;;;;;;;;;5115055;28;20023;-62
2021/12/17 04:39:55;;;;;;;4.95;3.97;;;;;;;;;;5115358;28;20032;-61
2021/12/17 04:42:35;;;;;;;6.03;4.30;;;;;;;;;;5080170;28;20378;-61
2021/12/17 04:45:01;;;;;;;5.57;3.80;;;;;;;;;;5064842;28;20370;-62
2021/12/17 04:58:26;;;;;;;8.00;4.30;;;;;;;;;;5115157;28;20096;-60
2021/12/17 05:00:52;;;;;;;5.85;3.80;;;;;;;;;;5053884;28;20034;-62
2021/12/17 05:03:18;;;;;;;7.18;3.88;;;;;;;;;;5078401;28;20030;-64
2021/12/17 05:05:44;;;;;;;5.32;4.22;;;;;;;;;;5011501;28;20026;-61
2021/12/17 05:08:15;;;;;;;6.03;4.25;;;;;;;;;;5011210;28;20158;-61
2021/12/17 05:10:56;;;;;;;4.88;3.58;;;;;;;;;;5011466;28;20018;-61
2021/12/17 05:19:17;;;;;;;7.03;4.22;;;;;;;;;;5076516;28;20034;-62
2021/12/17 05:21:43;;;;;;;4.32;3.90;;;;;;;;;;5114553;28;20438;-61
2021/12/17 05:24:09;;;;;;;4.97;4.10;;;;;;;;;;5114493;28;20141;-60
2021/12/17 05:26:35;;;;;;;10.77;4.30;;;;;;;;;;5114590;28;20070;-68
2021/12/17 05:29:01;;;;;;;9.18;4.15;;;;;;;;;;5114360;28;20024;-67
2021/12/17 05:31:27;;;;;;;16.23;4.20;;;;;;;;;;5114265;28;20146;-63
2021/12/17 05:33:56;;;;;;;8.10;4.57;;;;;;;;;;5114161;28;20046;-67
2021/12/17 05:36:22;;;;;;;15.27;4.75;;;;;;;;;;5097062;28;20064;-65
2021/12/17 05:38:48;;;;;;;12.23;4.07;;;;;;;;;;5030717;28;20060;-66
2021/12/17 05:41:14;;;;;;;20.83;4.70;;;;;;;;;;5030678;28;20029;-65
2021/12/17 05:43:40;;;;;;;15.65;4.22;;;;;;;;;;5031209;28;20411;-68
2021/12/17 05:48:32;;;;;;;12.38;4.55;;;;;;;;;;5030967;28;20029;-61
2021/12/17 05:51:00;;;;;;;14.52;4.78;;;;;;;;;;5035165;28;20075;-68
2021/12/17 05:53:27;;;;;;;8.48;4.88;;;;;;;;;;5100312;28;20247;-61
2021/12/17 05:55:52;;;;;;;10.20;4.70;;;;;;;;;;5098391;28;20051;-67
2021/12/17 05:58:19;;;;;;;6.70;4.25;;;;;;;;;;5053073;28;20389;-65
2021/12/17 06:00:45;;;;;;;11.07;4.57;;;;;;;;;;5029945;28;20031;-71
2021/12/17 06:03:12;;;;;;;50.60;5.93;;;;;;;;;;5097726;28;20032;-62
2021/12/17 06:05:38;;;;;;;40.45;6.20;;;;;;;;;;5065233;28;20019;-62
2021/12/17 06:08:04;;;;;;;17.40;5.70;;;;;;;;;;5052544;28;20163;-61
2021/12/17 06:10:31;;;;;;;28.90;5.65;;;;;;;;;;5041590;28;20030;-63
2021/12/17 06:12:57;;;;;;;23.15;5.97;;;;;;;;;;5064984;28;20054;-66
2021/12/17 06:15:24;;;;;;;33.00;5.88;;;;;;;;;;5053245;28;20027;-62
2021/12/17 06:17:51;;;;;;;22.90;5.45;;;;;;;;;;5089115;28;20030;-64
2021/12/17 06:20:19;;;;;;;32.70;5.90;;;;;;;;;;5050353;28;20026;-63
2021/12/17 06:22:45;;;;;;;30.52;5.55;;;;;;;;;;5053492;28;20097;-63
2021/12/17 06:25:11;;;;;;;18.83;6.47;;;;;;;;;;5029708;28;20038;-65
2021/12/17 06:27:37;;;;;;;17.02;6.38;;;;;;;;;;5010246;28;20033;-68
2021/12/17 06:30:07;;;;;;;14.35;5.65;;;;;;;;;;5095995;28;20067;-68
2021/12/17 06:32:33;;;;;;;19.27;5.82;;;;;;;;;;5081187;28;20070;-62
2021/12/17 06:34:59;;;;;;;17.58;5.55;;;;;;;;;;5082169;28;20081;-64
2021/12/17 06:37:25;;;;;;;14.95;5.70;;;;;;;;;;5028015;28;20029;-62
2021/12/17 06:39:51;;;;;;;19.17;5.80;;;;;;;;;;5010116;28;20479;-63
2021/12/17 06:42:18;;;;;;;17.90;5.57;;;;;;;;;;5010085;28;20018;-64
2021/12/17 06:44:47;;;;;;;10.25;5.90;;;;;;;;;;5010158;28;20026;-63
2021/12/17 06:47:34;;;;;;;18.00;5.18;;;;;;;;;;5009918;28;20018;-65
2021/12/17 06:58:35;;;;;;;11.48;4.88;;;;;;;;;;5009944;28;20041;-63
2021/12/17 07:01:00;;;;;;;17.58;5.40;;;;;;;;;;5009872;28;20029;-63
2021/12/17 07:06:37;;;;;;;13.82;4.85;;;;;;;;;;5047407;28;20030;-64
2021/12/17 07:09:53;;;;;;;20.40;6.00;;;;;;;;;;5067452;28;20037;-61
2021/12/17 07:17:24;;;;;;;17.80;5.70;;;;;;;;;;5009978;28;20041;-67
2021/12/17 07:20:51;;;;;;;13.95;5.95;;;;;;;;;;5085714;28;20102;-66
2021/12/17 07:28:50;;;;;;;11.38;5.20;;;;;;;;;;5014112;28;20052;-66
2021/12/17 07:33:37;;;;;;;10.70;5.20;;;;;;;;;;5052677;28;20087;-63
2021/12/17 07:36:10;;;;;;;8.75;5.10;;;;;;;;;;5041209;28;20473;-64
2021/12/17 07:38:43;;;;;;;14.27;5.05;;;;;;;;;;5012828;28;20030;-65
2021/12/17 07:41:09;;;;;;;10.73;5.22;;;;;;;;;;5012396;28;20048;-65
2021/12/17 07:43:39;;;;;;;15.35;4.93;;;;;;;;;;5011729;28;20030;-65
2021/12/17 07:46:09;;;;;;;9.27;5.38;;;;;;;;;;5010815;28;20022;-65
2021/12/17 07:48:36;;;;;;;10.00;4.97;;;;;;;;;;5011337;28;20034;-65
2021/12/17 07:51:03;;;;;;;9.50;5.05;;;;;;;;;;5046469;28;20072;-64
2021/12/17 07:53:30;;;;;;;10.38;4.80;;;;;;;;;;5114749;28;20039;-65
2021/12/17 07:55:56;;;;;;;12.13;5.38;;;;;;;;;;5115175;28;20023;-65
2021/12/17 07:58:22;;;;;;;9.63;5.28;;;;;;;;;;5115775;28;20023;-65
2021/12/17 08:00:48;;;;;;;13.82;5.28;;;;;;;;;;5090255;28;20097;-64
2021/12/17 08:03:14;;;;;;;14.05;5.00;;;;;;;;;;5048559;28;20024;-65
2021/12/17 08:05:42;;;;;;;6.20;4.95;;;;;;;;;;5026344;28;20075;-64
2021/12/17 08:08:09;;;;;;;9.65;5.10;;;;;;;;;;5011995;28;20465;-63
2021/12/17 08:10:35;;;;;;;11.30;4.80;;;;;;;;;;5011173;28;20034;-63
2021/12/17 08:13:01;;;;;;;8.80;4.78;;;;;;;;;;5011631;28;20082;-65
2021/12/17 08:15:36;;;;;;;10.02;5.47;;;;;;;;;;5011804;28;20469;-64
2021/12/17 08:18:23;;;;;;;9.32;4.95;;;;;;;;;;5011983;28;20389;-64
2021/12/17 08:26:38;;;;;;;9.63;4.85;;;;;;;;;;4992723;28;20370;-64
2021/12/17 08:29:24;;;;;;;11.63;5.80;;;;;;;;;;4992106;28;20030;-63
2021/12/17 08:31:50;;;;;;;10.93;5.15;;;;;;;;;;4991958;28;20019;-64
2021/12/17 08:34:16;;;;;;;12.80;5.45;;;;;;;;;;4991957;28;20061;-64
2021/12/17 08:36:42;;;;;;;8.57;4.78;;;;;;;;;;5007490;28;20351;-64
2021/12/17 08:39:08;;;;;;;7.05;4.45;;;;;;;;;;5011365;28;20057;-64
2021/12/17 08:41:34;;;;;;;8.52;5.07;;;;;;;;;;5011348;28;20064;-64
2021/12/17 08:44:00;;;;;;;8.18;4.68;;;;;;;;;;5011135;28;20029;-64
2021/12/17 08:46:26;;;;;;;9.90;5.13;;;;;;;;;;5011591;28;20428;-64
2021/12/17 08:48:52;;;;;;;8.82;4.95;;;;;;;;;;5011954;28;20112;-64
2021/12/17 08:51:18;;;;;;;9.70;5.25;;;;;;;;;;5096085;28;20019;-65
2021/12/17 08:53:45;;;;;;;7.85;5.55;;;;;;;;;;5114581;28;20100;-64
2021/12/17 08:56:14;;;;;;;10.65;5.20;;;;;;;;;;5114546;28;20023;-64
2021/12/17 08:58:41;;;;;;;8.57;5.00;;;;;;;;;;5096246;28;20026;-64
2021/12/17 09:01:07;;;;;;;11.10;5.07;;;;;;;;;;5114573;28;20035;-64
2021/12/17 09:03:33;;;;;;;6.90;4.75;;;;;;;;;;5050192;28;20071;-64
2021/12/17 09:06:00;;;;;;;8.00;5.45;;;;;;;;;;5010912;28;20472;-64
2021/12/17 09:08:26;;;;;;;7.63;5.05;;;;;;;;;;5010959;28;20101;-64
2021/12/17 09:10:55;;;;;;;9.82;4.93;;;;;;;;;;5010891;28;20108;-63
2021/12/17 09:13:25;;;;;;;7.88;5.03;;;;;;;;;;5078234;28;20049;-64
2021/12/17 09:15:51;;;;;;;8.82;5.15;;;;;;;;;;5010943;28;20030;-64
2021/12/17 09:18:17;;;;;;;9.30;5.47;;;;;;;;;;5010325;28;20074;-63
2021/12/17 09:20:43;;;;;;;6.70;4.97;;;;;;;;;;5010700;28;20026;-64
2021/12/17 09:23:09;;;;;;;8.50;5.15;;;;;;;;;;5011033;28;20033;-63
2021/12/17 09:25:35;;;;;;;7.75;4.88;;;;;;;;;;5010689;28;20022;-62
2021/12/17 09:28:02;;;;;;;8.63;5.43;;;;;;;;;;5010662;28;20026;-64
2021/12/17 09:30:28;;;;;;;7.20;5.10;;;;;;;;;;5010769;28;20101;-63
2021/12/17 09:32:54;;;;;;;8.38;4.90;;;;;;;;;;5010906;28;20162;-64
2021/12/17 09:35:21;;;;;;;8.15;5.15;;;;;;;;;;5010831;28;20116;-64
2021/12/17 09:37:47;;;;;;;8.40;4.75;;;;;;;;;;5010434;28;20028;-63
2021/12/17 09:40:13;;;;;;;8.27;5.10;;;;;;;;;;5010328;28;20538;-63
2021/12/17 09:42:42;;;;;;;7.50;5.00;;;;;;;;;;5078086;28;20113;-63
2021/12/17 09:45:08;;;;;;;8.63;5.10;;;;;;;;;;5009651;28;20057;-63
2021/12/17 09:47:35;;;;;;;7.47;4.50;;;;;;;;;;5010349;28;20026;-63
2021/12/17 09:50:01;;;;;;;7.90;5.07;;;;;;;;;;5010177;28;20480;-62
2021/12/17 09:52:27;;;;;;;6.80;4.20;;;;;;;;;;5105324;28;20027;-63
2021/12/17 09:54:57;;;;;;;6.75;4.55;;;;;;;;;;5112560;28;20031;-63
2021/12/17 09:57:23;;;;;;;7.25;4.35;;;;;;;;;;5113347;28;20038;-63
2021/12/17 09:59:49;;;;;;;6.18;4.43;;;;;;;;;;5113353;28;20378;-63
2021/12/17 10:02:15;;;;;;;6.00;4.10;;;;;;;;;;5113428;28;20026;-63
2021/12/17 10:04:45;;;;;;;8.88;4.70;;;;;;;;;;5113693;28;20023;-63
2021/12/17 10:07:20;;;;;;;5.35;4.20;;;;;;;;;;5017243;28;20030;-63
2021/12/17 10:09:51;;;;;;;6.13;4.22;;;;;;;;;;5010040;28;20026;-63
2021/12/17 10:12:21;;;;;;;5.95;4.30;;;;;;;;;;5077537;28;20624;-63
2021/12/17 10:15:04;;;;;;;6.07;4.05;;;;;;;;;;5077714;28;20140;-63
2021/12/17 10:17:30;;;;;;;6.57;4.20;;;;;;;;;;5009983;28;20433;-63
2021/12/17 10:19:56;;;;;;;4.80;3.60;;;;;;;;;;5089948;28;20424;-63
2021/12/17 10:22:23;;;;;;;5.68;4.03;;;;;;;;;;5113633;28;20498;-63
2021/12/17 10:24:58;;;;;;;4.97;3.90;;;;;;;;;;5094935;28;20069;-63
2021/12/17 10:27:26;;;;;;;6.32;3.97;;;;;;;;;;5112895;28;20024;-63
2021/12/17 10:29:53;;;;;;;4.78;3.65;;;;;;;;;;5094740;28;20479;-62
2021/12/17 10:32:20;;;;;;;5.00;3.53;;;;;;;;;;5094681;28;20027;-63
2021/12/17 10:35:03;;;;;;;6.18;3.72;;;;;;;;;;5112948;28;20034;-64
2021/12/17 10:37:55;;;;;;;5.20;3.25;;;;;;;;;;5076889;28;20412;-63
2021/12/17 10:40:26;;;;;;;5.30;3.45;;;;;;;;;;5009950;28;20090;-65
2021/12/17 10:43:03;;;;;;;4.97;3.50;;;;;;;;;;5010037;28;20079;-66
2021/12/17 10:45:32;;;;;;;4.95;3.60;;;;;;;;;;5009727;28;20026;-66
2021/12/17 10:48:27;;;;;;;5.47;3.42;;;;;;;;;;5009790;28;20026;-64
2021/12/17 10:50:50;;;;;;;5.22;3.60;;;;;;;;;;5037084;28;20032;-67
2021/12/17 10:53:16;;;;;;;4.82;3.17;;;;;;;;;;5112742;28;20103;-66
2021/12/17 10:55:46;;;;;;;5.15;3.70;;;;;;;;;;5113355;28;20031;-66
2021/12/17 10:58:12;;;;;;;8.38;4.00;;;;;;;;;;5112947;28;20022;-66
2021/12/17 11:00:49;;;;;;;4.60;3.05;;;;;;;;;;5112910;28;20023;-66
2021/12/17 11:03:15;;;;;;;5.75;3.75;;;;;;;;;;5094898;28;20020;-67
2021/12/17 11:05:41;;;;;;;5.50;3.92;;;;;;;;;;5051236;28;20538;-67
2021/12/17 11:08:43;;;;;;;4.78;3.25;;;;;;;;;;5081516;28;20030;-67
2021/12/17 11:11:10;;;;;;;5.32;3.05;;;;;;;;;;5034138;28;20445;-67
2021/12/17 11:13:37;;;;;;;4.80;3.30;;;;;;;;;;5082895;28;20433;-67
2021/12/17 11:16:03;;;;;;;4.10;3.15;;;;;;;;;;5013009;28;20056;-66
2021/12/17 11:18:29;;;;;;;5.63;3.67;;;;;;;;;;5030908;28;20333;-67
2021/12/17 11:20:56;;;;;;;4.18;3.30;;;;;;;;;;5083878;28;20377;-66
2021/12/17 11:23:23;;;;;;;4.53;3.28;;;;;;;;;;5013237;28;20038;-66
2021/12/17 11:25:53;;;;;;;3.53;2.78;;;;;;;;;;5081069;28;20032;-67
2021/12/17 11:28:20;;;;;;;5.78;3.25;;;;;;;;;;5013245;28;20062;-66
2021/12/17 11:30:47;;;;;;;4.38;3.28;;;;;;;;;;5012833;28;20446;-66
2021/12/17 11:33:13;;;;;;;5.30;3.40;;;;;;;;;;5012797;28;20033;-66
2021/12/17 11:35:44;;;;;;;3.50;3.15;;;;;;;;;;5012644;28;20079;-66
2021/12/17 11:38:19;;;;;;;6.10;3.22;;;;;;;;;;5013010;28;20032;-66
2021/12/17 11:40:57;;;;;;;4.88;3.15;;;;;;;;;;5012766;28;20050;-65
2021/12/17 11:43:50;;;;;;;4.25;2.95;;;;;;;;;;5012626;28;20030;-66
2021/12/17 11:46:17;;;;;;;4.78;3.10;;;;;;;;;;5014545;28;20030;-65
2021/12/17 11:48:54;;;;;;;3.53;2.80;;;;;;;;;;5012468;28;20030;-62
2021/12/17 11:51:26;;;;;;;4.88;2.78;;;;;;;;;;5044555;28;20033;-63
2021/12/17 11:54:00;;;;;;;4.85;3.38;;;;;;;;;;5067003;28;20042;-62
2021/12/17 11:56:35;;;;;;;4.95;3.10;;;;;;;;;;5075356;28;20020;-64
2021/12/17 11:59:01;;;;;;;3.95;3.05;;;;;;;;;;5092520;28;20127;-62
2021/12/17 12:01:46;;;;;;;3.85;3.10;;;;;;;;;;5054224;28;20034;-63
2021/12/17 12:04:44;;;;;;;4.75;3.25;;;;;;;;;;5062703;28;20074;-63
2021/12/17 12:07:12;;;;;;;6.55;4.20;;;;;;;;;;5032714;28;20050;-63
2021/12/17 12:09:57;;;;;;;12.57;6.10;;;;;;;;;;5051242;28;20036;-63
2021/12/17 12:12:35;;;;;;;15.00;7.93;;;;;;;;;;5044843;28;20050;-63
2021/12/17 12:15:20;;;;;;;19.35;9.50;;;;;;;;;;5039768;28;20022;-64
2021/12/17 12:17:58;;;;;;;24.63;10.32;;;;;;;;;;5011203;28;20369;-62
2021/12/17 12:20:47;;;;;;;21.30;9.90;;;;;;;;;;5079299;28;20522;-63
2021/12/17 12:23:14;;;;;;;37.58;8.90;;;;;;;;;;5012089;28;20030;-64
2021/12/17 12:25:39;;;;;;;21.45;7.88;;;;;;;;;;5079925;28;20026;-64
2021/12/17 12:28:05;;;;;;;12.05;6.57;;;;;;;;;;5011862;28;20034;-65
2021/12/17 12:30:35;;;;;;;14.98;6.90;;;;;;;;;;5011852;28;20373;-64
2021/12/17 12:33:08;;;;;;;12.20;5.97;;;;;;;;;;5011781;28;20077;-65
2021/12/17 12:35:35;;;;;;;12.52;5.93;;;;;;;;;;5012448;28;20022;-63
2021/12/17 12:38:17;;;;;;;11.30;6.22;;;;;;;;;;5011119;28;20045;-64
2021/12/17 12:40:51;;;;;;;10.65;5.32;;;;;;;;;;5011734;28;20029;-64
2021/12/17 12:43:33;;;;;;;8.23;4.22;;;;;;;;;;5011859;28;20080;-65
2021/12/17 12:45:59;;;;;;;6.43;4.27;;;;;;;;;;5011033;28;20030;-63
2021/12/17 12:48:33;;;;;;;6.25;3.63;;;;;;;;;;5079283;28;20065;-64
2021/12/17 12:51:18;;;;;;;3.60;2.30;;;;;;;;;;5044024;28;20429;-64
2021/12/17 12:53:47;;;;;;;3.70;2.45;;;;;;;;;;5114422;28;20032;-63
2021/12/17 12:56:18;;;;;;;2.97;2.40;;;;;;;;;;5113996;28;20502;-64
2021/12/17 12:58:47;;;;;;;4.20;2.40;;;;;;;;;;5114134;28;20024;-64
2021/12/17 13:01:15;;;;;;;4.53;2.70;;;;;;;;;;5095831;28;20567;-66
2021/12/17 13:03:41;;;;;;;6.38;2.30;;;;;;;;;;5114056;28;20111;-65
2021/12/17 13:06:15;;;;;;;4.65;2.40;;;;;;;;;;5113438;28;20127;-65
2021/12/17 13:08:41;;;;;;;3.25;2.33;;;;;;;;;;5113706;28;20026;-65
2021/12/17 13:11:07;;;;;;;3.10;2.38;;;;;;;;;;5095580;28;20084;-63
2021/12/17 13:13:38;;;;;;;4.18;1.98;;;;;;;;;;5113446;28;20048;-63
2021/12/17 13:16:19;;;;;;;6.82;2.03;;;;;;;;;;5113714;28;20019;-62
2021/12/17 13:21:36;;;;;;;10.57;2.30;;;;;;;;;;5114320;28;20043;-62
2021/12/17 13:24:11;;;;;;;3.55;1.90;;;;;;;;;;5114236;28;20020;-62
2021/12/17 13:26:39;;;;;;;4.53;2.05;;;;;;;;;;5113901;28;20051;-62
2021/12/17 13:29:09;;;;;;;7.43;1.80;;;;;;;;;;5113029;28;20020;-62
2021/12/17 13:31:47;;;;;;;3.55;1.92;;;;;;;;;;5095799;28;20118;-62
2021/12/17 13:34:13;;;;;;;4.30;2.22;;;;;;;;;;5089511;28;20038;-62
2021/12/17 13:36:44;;;;;;;4.00;1.90;;;;;;;;;;5010879;28;20415;-62
2021/12/17 13:39:11;;;;;;;4.35;2.00;;;;;;;;;;5078283;28;20064;-62
2021/12/17 13:41:41;;;;;;;4.72;2.15;;;;;;;;;;5010882;28;20334;-62
2021/12/17 13:44:24;;;;;;;6.00;1.80;;;;;;;;;;5010662;28;20057;-61
2021/12/17 13:46:50;;;;;;;6.95;1.75;;;;;;;;;;5078207;28;20095;-61
2021/12/17 13:49:16;;;;;;;2.72;1.73;;;;;;;;;;5010427;28;20070;-61
2021/12/17 13:51:43;;;;;;;4.78;1.80;;;;;;;;;;5036461;28;20034;-61
2021/12/17 13:54:09;;;;;;;2.55;1.50;;;;;;;;;;5010322;28;20038;-62
2021/12/17 13:56:35;;;;;;;5.53;1.60;;;;;;;;;;5010793;28;20098;-62
2021/12/17 13:59:02;;;;;;;2.88;1.55;;;;;;;;;;5010536;28;20109;-62
2021/12/17 14:01:27;;;;;;;3.45;1.38;;;;;;;;;;5010715;28;20022;-61
2021/12/17 14:03:53;;;;;;;2.65;1.30;;;;;;;;;;5010291;28;20037;-61
2021/12/17 14:06:25;;;;;;;1.40;1.20;;;;;;;;;;5077834;28;20022;-61
2021/12/17 14:08:51;;;;;;;1.52;1.33;;;;;;;;;;5010710;28;20030;-62
2021/12/17 14:11:21;;;;;;;1.92;1.10;;;;;;;;;;5077857;28;20041;-62
2021/12/17 14:13:48;;;;;;;2.00;1.38;;;;;;;;;;5077828;28;20458;-62
2021/12/17 14:16:14;;;;;;;1.60;1.30;;;;;;;;;;5010356;28;20101;-62
2021/12/17 14:18:41;;;;;;;1.60;1.17;;;;;;;;;;5035963;28;20023;-62
2021/12/17 14:21:08;;;;;;;3.15;1.48;;;;;;;;;;5113398;28;20027;-62
2021/12/17 14:23:38;;;;;;;2.85;1.40;;;;;;;;;;5113286;28;20047;-62
2021/12/17 14:26:09;;;;;;;1.85;1.27;;;;;;;;;;5060514;28;20473;-62
2021/12/17 14:28:37;;;;;;;3.60;1.42;;;;;;;;;;5010028;28;20022;-62
2021/12/17 14:31:12;;;;;;;1.80;1.45;;;;;;;;;;5077894;28;20466;-62
2021/12/17 14:33:42;;;;;;;1.67;1.23;;;;;;;;;;5009762;28;20039;-60
2021/12/17 14:36:10;;;;;;;1.65;1.40;;;;;;;;;;5077735;28;20025;-62
2021/12/17 14:38:36;;;;;;;1.85;1.30;;;;;;;;;;5009906;28;20037;-62
2021/12/17 14:41:02;;;;;;;1.70;1.35;;;;;;;;;;5011126;28;20018;-62
2021/12/17 14:43:35;;;;;;;1.98;1.45;;;;;;;;;;5081661;28;20042;-62
2021/12/17 14:46:13;;;;;;;2.65;1.80;;;;;;;;;;5013325;28;20034;-61
2021/12/17 14:48:50;;;;;;;1.80;1.38;;;;;;;;;;5013541;28;20053;-61
2021/12/17 15:04:45;;;;;;;2.00;1.30;;;;;;;;;;5013434;28;20059;-61
2021/12/17 15:07:11;;;;;;;1.25;1.15;;;;;;;;;;5013342;28;20030;-61
2021/12/17 15:09:42;;;;;;;1.95;1.30;;;;;;;;;;5013187;28;20054;-62
2021/12/17 15:12:55;;;;;;;1.67;1.25;;;;;;;;;;5013090;28;20427;-62
2021/12/17 15:14:59;;;;;;;2.17;1.40;;;;;;;;;;5018231;28;20065;-62
2021/12/17 15:17:25;;;;;;;2.45;1.33;;;;;;;;;;5013340;28;20029;-62
2021/12/17 15:19:51;;;;;;;0.98;0.90;;;;;;;;;;5089086;28;20027;-62
2021/12/17 15:22:17;;;;;;;2.65;1.27;;;;;;;;;;5116801;28;20065;-62
2021/12/17 15:24:43;;;;;;;1.95;1.20;;;;;;;;;;5080123;28;20034;-63
2021/12/17 15:27:09;;;;;;;1.58;1.10;;;;;;;;;;5013084;28;20124;-62
2021/12/17 15:29:35;;;;;;;1.00;0.90;;;;;;;;;;5012959;28;20026;-62
2021/12/17 15:32:01;;;;;;;2.15;1.15;;;;;;;;;;5013204;28;20337;-62
2021/12/17 15:34:26;;;;;;;1.45;1.08;;;;;;;;;;5080685;28;20049;-62
2021/12/17 15:36:57;;;;;;;1.70;1.10;;;;;;;;;;5013143;28;20017;-62
2021/12/17 15:39:23;;;;;;;0.88;0.88;;;;;;;;;;5012685;28;20381;-62
2021/12/17 15:41:49;;;;;;;1.33;1.00;;;;;;;;;;5012251;28;20071;-62
2021/12/17 15:44:15;;;;;;;1.40;0.98;;;;;;;;;;5012838;28;20136;-62
2021/12/17 15:46:41;;;;;;;1.23;0.90;;;;;;;;;;5012870;28;20026;-62
2021/12/17 15:49:07;;;;;;;1.05;0.90;;;;;;;;;;5012712;28;20065;-62
2021/12/17 15:51:36;;;;;;;1.70;0.98;;;;;;;;;;5069207;28;20055;-62
2021/12/17 15:54:02;;;;;;;1.80;1.10;;;;;;;;;;5115093;28;20042;-62
2021/12/17 15:56:29;;;;;;;1.10;1.00;;;;;;;;;;5115229;28;20027;-62
2021/12/17 15:58:55;;;;;;;1.35;1.10;;;;;;;;;;5079324;28;20037;-62
2021/12/17 16:01:21;;;;;;;1.38;1.02;;;;;;;;;;5012204;28;20033;-62
2021/12/17 16:03:47;;;;;;;1.40;1.10;;;;;;;;;;5012627;28;20540;-62
2021/12/17 16:06:14;;;;;;;2.08;1.10;;;;;;;;;;5012262;28;20060;-62
2021/12/17 16:08:54;;;;;;;1.30;1.08;;;;;;;;;;5012223;28;20438;-62
2021/12/17 16:21:56;;;;;;;2.13;1.33;;;;;;;;;;5066414;28;20027;-64
2021/12/17 16:24:23;;;;;;;5.88;1.48;;;;;;;;;;5040420;28;20030;-64
2021/12/17 16:26:49;;;;;;;1.33;1.23;;;;;;;;;;5011898;28;20481;-64
2021/12/17 16:29:18;;;;;;;1.50;1.15;;;;;;;;;;5014945;28;20022;-64
2021/12/17 16:31:45;;;;;;;2.70;1.50;;;;;;;;;;5059590;28;20038;-64
2021/12/17 16:34:11;;;;;;;1.67;1.30;;;;;;;;;;5009928;28;20044;-63
2021/12/17 16:36:40;;;;;;;2.80;1.50;;;;;;;;;;5010680;28;20022;-63
2021/12/17 16:39:14;;;;;;;1.95;1.40;;;;;;;;;;5010861;28;20026;-64
2021/12/17 16:41:40;;;;;;;3.38;1.15;;;;;;;;;;5073801;28;20074;-63
2021/12/17 16:44:09;;;;;;;1.13;1.02;;;;;;;;;;5010372;28;20029;-64
2021/12/17 16:49:06;;;;;;;3.85;1.75;;;;;;;;;;5010691;28;20065;-64
2021/12/17 16:51:32;;;;;;;2.47;1.40;;;;;;;;;;5064168;28;20059;-62
2021/12/17 16:53:59;;;;;;;1.92;1.27;;;;;;;;;;5072842;28;20091;-64
2021/12/17 16:56:25;;;;;;;3.20;1.10;;;;;;;;;;5010380;28;20095;-64
2021/12/17 16:58:51;;;;;;;1.77;1.33;;;;;;;;;;5078059;28;20061;-63
2021/12/17 17:01:18;;;;;;;2.20;1.25;;;;;;;;;;5022048;28;20031;-63
2021/12/17 17:03:44;;;;;;;7.43;1.17;;;;;;;;;;5052441;28;20364;-64
2021/12/17 17:06:11;;;;;;;1.20;1.10;;;;;;;;;;5048584;28;20121;-64
2021/12/17 17:08:37;;;;;;;5.47;1.30;;;;;;;;;;5068635;28;20018;-64
2021/12/17 17:11:04;;;;;;;4.60;1.73;;;;;;;;;;5063469;28;20068;-63
2021/12/17 17:13:34;;;;;;;8.13;1.80;;;;;;;;;;5037158;28;20043;-63
2021/12/17 17:16:04;;;;;;;3.88;2.10;;;;;;;;;;5065660;28;20022;-63
2021/12/17 17:18:30;;;;;;;4.47;2.28;;;;;;;;;;5047517;28;20047;-65
2021/12/17 17:20:58;;;;;;;6.10;2.20;;;;;;;;;;5054753;28;20042;-64
2021/12/17 17:23:24;;;;;;;3.25;2.13;;;;;;;;;;5055447;28;20040;-63
2021/12/17 17:25:50;;;;;;;3.65;2.25;;;;;;;;;;5059150;28;20115;-64
2021/12/17 17:28:17;;;;;;;6.40;2.47;;;;;;;;;;5054456;28;20015;-62
2021/12/17 17:30:43;;;;;;;3.72;2.60;;;;;;;;;;5033463;28;20038;-63
2021/12/17 17:33:09;;;;;;;5.57;2.63;;;;;;;;;;5051079;28;20062;-64
2021/12/17 17:35:35;;;;;;;5.20;2.67;;;;;;;;;;5065426;28;20031;-66